createdAt,value
2022-12-15T00:05:00.317Z,60.97
2022-12-15T00:11:21.277Z,53.28
2022-12-15T00:17:41.546Z,54.20
2022-12-15T00:24:01.782Z,57.45
2022-12-15T00:30:24.325Z,51.15
2022-12-15T00:36:44.740Z,50.63
2022-12-15T00:42:51.682Z,59.27
2022-12-15T00:48:53.992Z,53.10
2022-12-15T00:55:14.772Z,53.67
2022-12-15T01:01:35.171Z,56.72
2022-12-15T01:07:55.568Z,60.60
2022-12-15T01:14:15.869Z,49.13
2022-12-15T01:20:20.737Z,61.80
2022-12-15T01:26:22.925Z,77.27
2022-12-15T01:32:24.978Z,68.53
2022-12-15T01:38:27.713Z,57.08
2022-12-15T01:44:29.550Z,66.80
2022-12-15T01:50:35.975Z,66.35
2022-12-15T01:56:43.492Z,59.05
2022-12-15T02:02:45.680Z,64.57
2022-12-15T02:08:50.238Z,53.72
2022-12-15T02:15:11.013Z,58.50
2022-12-15T02:21:21.959Z,52.50
2022-12-15T02:28:01.410Z,53.13
2022-12-15T02:34:14.407Z,56.42
2022-12-15T02:40:16.273Z,53.22
2022-12-15T02:46:31.173Z,50.05
2022-12-15T02:52:56.127Z,53.83
2022-12-15T02:59:25.551Z,56.30
2022-12-15T03:05:28.178Z,54.50
2022-12-15T03:11:30.983Z,52.30
2022-12-15T03:17:32.809Z,52.07
2022-12-15T03:23:34.660Z,55.03
2022-12-15T03:29:36.581Z,50.10
2022-12-15T03:35:38.501Z,54.23
2022-12-15T03:41:41.639Z,53.90
2022-12-15T03:47:44.297Z,51.20
2022-12-15T03:53:48.032Z,55.88
2022-12-15T03:59:50.086Z,53.33
2022-12-15T04:05:52.003Z,54.73
2022-12-15T04:11:53.808Z,52.83
2022-12-15T04:17:56.367Z,52.83
2022-12-15T04:24:16.749Z,49.17
2022-12-15T04:30:37.641Z,52.93
2022-12-15T04:37:00.187Z,49.10
2022-12-15T04:43:20.853Z,51.47
2022-12-15T04:49:41.448Z,50.63
2022-12-15T04:56:01.848Z,50.10
2022-12-15T05:02:22.386Z,48.93
2022-12-15T05:08:42.964Z,57.90
2022-12-15T05:15:03.442Z,55.00
2022-12-15T05:21:24.348Z,54.13
2022-12-15T05:34:11.257Z,70.30
2022-12-15T05:40:13.196Z,62.10
2022-12-15T05:46:15.469Z,63.17
2022-12-15T05:52:17.589Z,64.50
2022-12-15T05:58:19.408Z,74.10
2022-12-15T06:04:21.293Z,73.90
2022-12-15T06:10:23.124Z,73.32
2022-12-15T06:16:27.976Z,67.83
2022-12-15T06:22:29.982Z,54.60
2022-12-15T06:28:31.830Z,51.53
2022-12-15T06:34:33.633Z,49.70
2022-12-15T06:40:38.172Z,58.17
2022-12-15T06:46:40.263Z,48.30
2022-12-15T06:52:42.131Z,54.70
2022-12-15T06:58:43.954Z,78.67
2022-12-15T07:04:45.959Z,46.83
2022-12-15T07:10:47.867Z,49.97
2022-12-15T07:16:49.674Z,47.10
2022-12-15T07:22:52.283Z,46.70
2022-12-15T07:28:54.686Z,61.15
2022-12-15T07:34:56.563Z,60.67
2022-12-15T07:41:03.452Z,60.85
2022-12-15T07:47:05.550Z,57.05
2022-12-15T07:53:07.533Z,52.50
2022-12-15T07:59:09.981Z,48.05
2022-12-15T08:05:11.852Z,51.17
2022-12-15T08:11:15.295Z,47.10
2022-12-15T08:17:17.167Z,46.47
2022-12-15T08:23:19.055Z,47.25
2022-12-15T08:35:56.413Z,54.05
2022-12-15T08:41:58.996Z,48.00
2022-12-15T08:48:01.129Z,47.28
2022-12-15T08:54:03.113Z,41.40
2022-12-15T09:00:05.811Z,46.47
2022-12-15T09:06:13.205Z,49.55
2022-12-15T09:12:15.155Z,51.35
2022-12-15T09:18:17.010Z,48.45
2022-12-15T09:24:28.758Z,44.42
2022-12-15T09:30:36.290Z,52.45
2022-12-15T09:36:38.215Z,62.53
2022-12-15T09:42:40.121Z,61.90
2022-12-15T09:48:45.196Z,63.63
2022-12-15T09:54:47.318Z,57.95
2022-12-15T10:00:56.240Z,56.30
2022-12-15T10:07:22.303Z,57.70
2022-12-15T10:13:45.710Z,38.17
2022-12-15T10:19:58.301Z,52.67
2022-12-15T10:26:25.696Z,55.05
2022-12-15T10:32:37.953Z,60.70
2022-12-15T10:38:50.545Z,53.05
2022-12-15T10:44:58.485Z,51.40
2022-12-15T10:51:20.498Z,43.33
2022-12-15T10:57:31.747Z,44.35
2022-12-15T11:03:38.720Z,46.25
2022-12-15T11:09:41.485Z,43.10
2022-12-15T11:15:54.968Z,41.45
2022-12-15T11:22:02.902Z,42.92
2022-12-15T11:28:20.446Z,38.75
2022-12-15T11:34:36.358Z,40.38
2022-12-15T11:40:43.188Z,43.20
2022-12-15T11:46:53.317Z,43.55
2022-12-15T11:53:19.682Z,46.50
2022-12-15T11:59:46.466Z,38.63
2022-12-15T12:06:19.483Z,42.73
2022-12-15T12:12:32.466Z,50.58
2022-12-15T12:18:43.046Z,38.90
2022-12-15T12:24:51.035Z,49.85
2022-12-15T12:30:56.650Z,36.47
2022-12-15T12:37:13.850Z,36.88
2022-12-15T12:43:26.060Z,38.22
2022-12-15T12:49:38.338Z,33.40
2022-12-15T12:55:42.411Z,33.45
2022-12-15T13:01:44.309Z,34.85
2022-12-15T13:08:13.548Z,32.05
2022-12-15T13:14:31.948Z,30.45
2022-12-15T13:20:38.305Z,31.25
2022-12-15T13:26:44.946Z,30.20
2022-12-15T13:33:16.497Z,34.08
2022-12-15T13:39:18.238Z,29.75
2022-12-15T13:45:50.657Z,29.13
2022-12-15T13:52:00.720Z,31.77
2022-12-15T13:58:16.036Z,27.80
2022-12-15T14:04:18.826Z,26.83
2022-12-15T14:10:29.803Z,32.75
2022-12-15T14:16:34.550Z,32.75
2022-12-15T14:22:36.389Z,33.58
2022-12-15T14:28:41.205Z,37.60
2022-12-15T14:34:44.959Z,33.60
2022-12-15T14:40:56.616Z,37.67
2022-12-15T14:47:00.169Z,36.55
2022-12-15T14:53:16.838Z,42.28
2022-12-15T14:59:20.513Z,39.45
2022-12-15T15:05:27.736Z,42.55
2022-12-15T15:11:35.316Z,38.25
2022-12-15T15:17:38.476Z,38.45
2022-12-15T15:23:40.698Z,38.47
2022-12-15T15:29:42.556Z,39.05
2022-12-15T15:35:47.731Z,38.70
2022-12-15T15:41:49.704Z,34.42
2022-12-15T15:47:56.167Z,34.53
2022-12-15T15:54:01.401Z,32.15
2022-12-15T16:00:13.697Z,27.13
2022-12-15T16:06:21.185Z,30.95
2022-12-15T16:12:30.243Z,28.83
2022-12-15T16:18:32.827Z,38.50
2022-12-15T16:24:34.909Z,28.42
2022-12-15T16:30:36.750Z,35.60
2022-12-15T16:36:39.992Z,36.83
2022-12-15T16:42:41.919Z,40.28
2022-12-15T16:48:48.096Z,36.45
2022-12-15T16:54:53.449Z,30.05
2022-12-15T17:00:59.168Z,25.15
2022-12-15T17:07:02.894Z,32.28
2022-12-15T17:13:37.811Z,29.98
2022-12-15T17:20:19.843Z,32.97
2022-12-15T17:26:29.892Z,29.38
2022-12-15T17:32:32.040Z,46.65
2022-12-15T17:38:34.031Z,52.72
2022-12-15T17:44:37.920Z,45.88
2022-12-15T17:50:40.411Z,40.92
2022-12-15T17:56:44.572Z,36.00
2022-12-15T18:02:46.595Z,36.33
2022-12-15T18:08:48.602Z,41.65
2022-12-15T18:14:50.907Z,42.70
2022-12-15T18:21:00.264Z,41.90
2022-12-15T18:27:02.159Z,65.47
2022-12-15T18:33:04.099Z,61.10
2022-12-15T18:39:23.169Z,59.60
2022-12-15T18:45:28.259Z,70.70
2022-12-15T18:51:31.019Z,90.47
2022-12-15T18:57:37.821Z,71.63
2022-12-15T19:03:41.038Z,69.95
2022-12-15T19:09:43.014Z,44.92
2022-12-15T19:15:45.585Z,43.55
2022-12-15T19:21:48.390Z,48.67
2022-12-15T19:27:50.232Z,75.53
2022-12-15T19:33:52.212Z,69.60
2022-12-15T19:39:56.430Z,67.78
2022-12-15T19:45:58.299Z,65.32
2022-12-15T19:52:00.165Z,57.35
2022-12-15T19:58:27.814Z,44.15
2022-12-15T20:04:32.115Z,45.13
2022-12-15T20:10:33.933Z,38.38
2022-12-15T20:16:35.756Z,40.63
2022-12-15T20:22:37.635Z,40.60
2022-12-15T20:28:39.466Z,54.65
2022-12-15T20:34:41.658Z,63.58
2022-12-15T20:40:43.544Z,66.45
2022-12-15T20:46:45.682Z,83.70
2022-12-15T20:52:47.532Z,59.13
2022-12-15T20:58:53.848Z,57.85
2022-12-15T21:04:55.825Z,58.75
2022-12-15T21:11:02.153Z,55.90
2022-12-15T21:17:04.082Z,82.25
2022-12-15T21:23:06.402Z,85.60
2022-12-15T21:29:14.017Z,89.95
2022-12-15T21:35:17.388Z,88.05
2022-12-15T21:41:22.094Z,82.95
2022-12-15T21:47:49.977Z,62.45
2022-12-15T21:53:53.925Z,55.35
2022-12-15T21:59:55.763Z,72.80
2022-12-15T22:05:57.558Z,79.00
2022-12-15T22:11:59.487Z,68.18
2022-12-15T22:18:01.546Z,78.38
2022-12-15T22:24:03.494Z,79.80
2022-12-15T22:30:13.590Z,66.70
2022-12-15T22:36:15.534Z,87.72
2022-12-15T22:42:17.538Z,78.75
2022-12-15T22:48:20.676Z,79.78
2022-12-15T22:54:28.880Z,65.03
2022-12-15T23:00:30.675Z,61.92
2022-12-15T23:06:32.600Z,59.17
2022-12-15T23:12:34.371Z,66.32
2022-12-15T23:18:36.469Z,65.03
2022-12-15T23:24:39.010Z,67.57
2022-12-15T23:30:40.889Z,58.10
2022-12-15T23:36:42.707Z,66.05
2022-12-15T23:42:44.503Z,58.50
2022-12-15T23:48:46.965Z,60.13
2022-12-15T23:54:48.758Z,57.83
